createdAt,value
2017-01-01T00:00:07.987Z,0
2017-01-01T00:01:16.994Z,0
2017-01-01T00:02:26.111Z,4
2017-01-01T00:03:35.235Z,4
2017-01-01T00:04:44.246Z,0
2017-01-01T00:05:53.271Z,0
2017-01-01T00:07:02.364Z,0
2017-01-01T00:08:11.355Z,4
2017-01-01T00:09:20.328Z,4
2017-01-01T00:10:29.328Z,4
2017-01-01T00:11:38.362Z,4
2017-01-01T00:12:47.794Z,4
2017-01-01T00:13:56.985Z,4
2017-01-01T00:15:06.123Z,4
2017-01-01T00:16:15.104Z,4
2017-01-01T00:17:24.133Z,4
2017-01-01T00:18:33.531Z,4
2017-01-01T00:19:42.526Z,4
2017-01-01T00:20:51.511Z,4
2017-01-01T00:22:00.534Z,4
2017-01-01T00:23:09.731Z,4
2017-01-01T00:24:19.013Z,4
2017-01-01T00:25:27.993Z,4
2017-01-01T00:26:36.993Z,4
2017-01-01T00:27:45.981Z,4
2017-01-01T00:28:55.118Z,4
2017-01-01T00:30:04.159Z,4
2017-01-01T00:31:13.159Z,4
2017-01-01T00:32:22.160Z,4
2017-01-01T00:33:31.312Z,4
2017-01-01T00:34:40.534Z,4
2017-01-01T00:35:49.519Z,4
2017-01-01T00:36:58.509Z,4
2017-01-01T00:38:07.488Z,4
2017-01-01T00:39:16.518Z,4
2017-01-01T00:40:25.569Z,4
2017-01-01T00:41:34.548Z,4
2017-01-01T00:42:43.588Z,4
2017-01-01T00:43:52.789Z,4
2017-01-01T00:45:01.776Z,4
2017-01-01T00:46:10.802Z,4
2017-01-01T00:47:19.800Z,4
2017-01-01T00:48:28.799Z,4
2017-01-01T00:49:37.817Z,4
2017-01-01T00:50:46.854Z,0
2017-01-01T00:51:55.878Z,4
2017-01-01T00:53:04.861Z,0
2017-01-01T00:54:14.920Z,0
2017-01-01T00:55:23.915Z,0
2017-01-01T00:56:32.995Z,0
2017-01-01T00:57:41.978Z,0
2017-01-01T00:58:50.998Z,0
2017-01-01T01:00:00.031Z,0
2017-01-01T01:01:09.044Z,0
2017-01-01T01:02:18.118Z,0
2017-01-01T01:03:27.401Z,0
2017-01-01T01:04:36.471Z,0
2017-01-01T01:05:45.463Z,0
2017-01-01T01:06:54.509Z,0
2017-01-01T01:08:03.506Z,0
2017-01-01T01:09:12.506Z,0
2017-01-01T01:10:21.494Z,0
2017-01-01T01:11:30.655Z,0
2017-01-01T01:12:39.664Z,0
2017-01-01T01:13:48.646Z,0
2017-01-01T01:14:57.695Z,0
2017-01-01T01:16:06.687Z,0
2017-01-01T01:17:15.665Z,4
2017-01-01T01:18:24.822Z,0
2017-01-01T01:19:33.823Z,0
2017-01-01T01:20:42.844Z,0
2017-01-01T01:21:51.880Z,0
2017-01-01T01:23:00.996Z,0
2017-01-01T01:24:10.941Z,0
2017-01-01T01:25:20.892Z,0
2017-01-01T01:26:29.898Z,0
2017-01-01T01:27:39.251Z,0
2017-01-01T01:28:48.248Z,0
2017-01-01T01:29:57.228Z,0
2017-01-01T01:31:06.216Z,0
2017-01-01T01:32:15.235Z,0
2017-01-01T01:33:24.282Z,0
2017-01-01T01:34:33.586Z,0
2017-01-01T01:35:42.596Z,0
2017-01-01T01:36:51.586Z,0
2017-01-01T01:38:00.960Z,4
2017-01-01T01:39:09.941Z,0
2017-01-01T01:40:19.008Z,0
2017-01-01T01:41:28.026Z,0
2017-01-01T01:42:37.164Z,0
2017-01-01T01:43:46.516Z,0
2017-01-01T01:44:55.807Z,0
2017-01-01T01:46:05.286Z,0
2017-01-01T01:47:14.678Z,0
2017-01-01T01:48:23.814Z,0
2017-01-01T01:49:32.787Z,0
2017-01-01T01:50:41.926Z,0
2017-01-01T01:51:50.900Z,0
2017-01-01T01:52:59.899Z,0
2017-01-01T01:54:08.888Z,0
2017-01-01T01:55:17.900Z,0
2017-01-01T01:56:26.998Z,0
2017-01-01T01:57:35.994Z,4
2017-01-01T01:58:45.016Z,4
2017-01-01T01:59:54.013Z,4
2017-01-01T02:01:03.022Z,4
2017-01-01T02:02:12.050Z,0
2017-01-01T02:03:21.253Z,0
2017-01-01T02:04:30.727Z,0
2017-01-01T02:05:40.430Z,0
2017-01-01T02:06:49.678Z,0
2017-01-01T02:07:58.708Z,0
2017-01-01T02:09:07.673Z,0
2017-01-01T02:10:17.082Z,0
2017-01-01T02:11:26.068Z,0
2017-01-01T02:12:35.121Z,0
2017-01-01T02:13:44.120Z,0
2017-01-01T02:14:53.116Z,0
2017-01-01T02:16:02.149Z,0
2017-01-01T02:17:11.545Z,0
2017-01-01T02:18:20.677Z,0
2017-01-01T02:19:29.665Z,0
2017-01-01T02:20:38.653Z,0
2017-01-01T02:21:47.634Z,0
2017-01-01T02:22:56.651Z,0
2017-01-01T02:24:05.664Z,0
2017-01-01T02:25:14.761Z,0
2017-01-01T02:26:24.360Z,0
2017-01-01T02:27:33.847Z,0
2017-01-01T02:28:43.821Z,0
2017-01-01T02:29:53.192Z,0
2017-01-01T02:31:02.232Z,0
2017-01-01T02:32:11.215Z,0
2017-01-01T02:33:20.182Z,0
2017-01-01T02:34:29.200Z,0
2017-01-01T02:35:38.219Z,0
2017-01-01T02:36:47.303Z,0
2017-01-01T02:37:56.616Z,0
2017-01-01T02:39:06.305Z,0
2017-01-01T02:40:15.307Z,0
2017-01-01T02:41:24.337Z,0
2017-01-01T02:42:33.328Z,0
2017-01-01T02:43:42.318Z,0
2017-01-01T02:44:51.334Z,0
2017-01-01T02:46:00.331Z,0
2017-01-01T02:47:09.667Z,0
2017-01-01T02:48:18.734Z,0
2017-01-01T02:49:27.893Z,0
2017-01-01T02:50:37.453Z,0
2017-01-01T02:51:46.944Z,0
2017-01-01T02:52:56.173Z,0
2017-01-01T02:54:05.148Z,0
2017-01-01T02:55:14.127Z,0
2017-01-01T02:56:23.160Z,0
2017-01-01T02:57:32.164Z,0
2017-01-01T02:58:41.218Z,0
2017-01-01T02:59:50.218Z,0
2017-01-01T03:00:59.355Z,0
2017-01-01T03:02:08.445Z,0
2017-01-01T03:03:17.565Z,0
2017-01-01T03:04:26.960Z,0
2017-01-01T03:05:36.000Z,0
2017-01-01T03:06:44.980Z,0
2017-01-01T03:07:53.964Z,0
2017-01-01T03:09:02.950Z,0
2017-01-01T03:10:12.045Z,0
2017-01-01T03:11:21.076Z,0
2017-01-01T03:12:30.101Z,0
2017-01-01T03:13:39.675Z,0
2017-01-01T03:14:48.709Z,0
2017-01-01T03:15:57.892Z,0
2017-01-01T03:17:06.871Z,0
2017-01-01T03:18:15.875Z,0
2017-01-01T03:19:24.894Z,0
2017-01-01T03:20:33.872Z,0
2017-01-01T03:21:42.869Z,0
2017-01-01T03:22:51.919Z,0
2017-01-01T03:24:00.931Z,0
2017-01-01T03:25:10.049Z,0
2017-01-01T03:26:19.200Z,0
2017-01-01T03:27:28.340Z,0
2017-01-01T03:28:37.373Z,0
2017-01-01T03:29:46.364Z,0
2017-01-01T03:30:55.414Z,0
2017-01-01T03:32:04.420Z,0
2017-01-01T03:33:13.443Z,0
2017-01-01T03:34:22.667Z,0
2017-01-01T03:35:31.854Z,0
2017-01-01T03:36:40.992Z,0
2017-01-01T03:37:50.148Z,0
2017-01-01T03:38:59.248Z,0
2017-01-01T03:40:08.234Z,0
2017-01-01T03:41:17.249Z,0
2017-01-01T03:42:26.302Z,0
2017-01-01T03:43:35.310Z,0
2017-01-01T03:44:44.448Z,0
2017-01-01T03:45:53.950Z,0
2017-01-01T03:47:02.925Z,0
2017-01-01T03:48:11.919Z,0
2017-01-01T03:49:20.887Z,0
2017-01-01T03:50:29.883Z,0
2017-01-01T03:51:38.881Z,0
2017-01-01T03:52:48.008Z,0
2017-01-01T03:53:57.062Z,0
2017-01-01T03:55:06.300Z,0
2017-01-01T03:56:15.585Z,0
2017-01-01T03:57:24.688Z,0
2017-01-01T03:58:33.721Z,0
2017-01-01T03:59:42.684Z,0
2017-01-01T04:00:51.667Z,0
2017-01-01T04:02:00.691Z,0
2017-01-01T04:03:09.696Z,0
2017-01-01T04:04:18.829Z,0
2017-01-01T04:05:27.995Z,0
2017-01-01T04:06:37.450Z,0
2017-01-01T04:07:47.268Z,0
2017-01-01T04:08:56.385Z,0
2017-01-01T04:10:05.403Z,0
2017-01-01T04:11:14.440Z,0
2017-01-01T04:12:23.418Z,0
2017-01-01T04:13:32.457Z,0
2017-01-01T04:14:41.435Z,0
2017-01-01T04:15:50.418Z,0
2017-01-01T04:16:59.412Z,0
2017-01-01T04:18:08.430Z,0
2017-01-01T04:19:17.410Z,0
2017-01-01T04:20:26.421Z,0
2017-01-01T04:21:35.574Z,0
2017-01-01T04:22:44.786Z,0
2017-01-01T04:23:54.233Z,0
2017-01-01T04:25:03.367Z,0
2017-01-01T04:26:12.345Z,0
2017-01-01T04:27:21.318Z,0
2017-01-01T04:28:30.319Z,0
2017-01-01T04:29:39.322Z,0
2017-01-01T04:30:48.603Z,0
2017-01-01T04:31:58.010Z,0
2017-01-01T04:33:06.985Z,0
2017-01-01T04:34:15.988Z,0
2017-01-01T04:35:24.974Z,0
2017-01-01T04:36:33.957Z,0
2017-01-01T04:37:42.929Z,0
2017-01-01T04:38:51.995Z,0
2017-01-01T04:40:01.053Z,0
2017-01-01T04:41:10.062Z,0
2017-01-01T04:42:19.056Z,0
2017-01-01T04:43:28.188Z,0
2017-01-01T04:44:37.506Z,0
2017-01-01T04:45:46.946Z,0
2017-01-01T04:46:56.081Z,0
2017-01-01T04:48:05.174Z,0
2017-01-01T04:49:14.159Z,0
2017-01-01T04:50:23.192Z,0
2017-01-01T04:51:32.175Z,0
2017-01-01T04:52:42.079Z,0
2017-01-01T04:53:51.587Z,0
2017-01-01T04:55:00.826Z,0
2017-01-01T04:56:09.804Z,0
2017-01-01T04:57:18.772Z,0
2017-01-01T04:58:27.798Z,0
2017-01-01T04:59:36.842Z,0
2017-01-01T05:00:45.857Z,0
2017-01-01T05:01:55.133Z,0
2017-01-01T05:03:04.434Z,0
2017-01-01T05:04:13.818Z,0
2017-01-01T05:05:22.960Z,0
2017-01-01T05:06:31.985Z,0
2017-01-01T05:07:41.080Z,0
2017-01-01T05:08:50.062Z,0
2017-01-01T05:09:59.039Z,0
2017-01-01T05:11:08.037Z,0
2017-01-01T05:12:17.006Z,0
2017-01-01T05:13:26.016Z,0
2017-01-01T05:14:35.038Z,0
2017-01-01T05:15:44.278Z,0
2017-01-01T05:16:53.774Z,0
2017-01-01T05:18:02.756Z,0
2017-01-01T05:19:11.772Z,0
2017-01-01T05:20:20.754Z,0
2017-01-01T05:21:29.743Z,0
2017-01-01T05:22:38.763Z,0
2017-01-01T05:23:47.742Z,0
2017-01-01T05:24:57.111Z,0
2017-01-01T05:26:06.481Z,0
2017-01-01T05:27:15.894Z,0
2017-01-01T05:28:24.868Z,0
2017-01-01T05:29:33.886Z,0
2017-01-01T05:30:42.873Z,0
2017-01-01T05:31:51.857Z,0
2017-01-01T05:33:00.860Z,0
2017-01-01T05:34:10.222Z,0
2017-01-01T05:35:19.453Z,0
2017-01-01T05:36:28.429Z,0
2017-01-01T05:37:37.416Z,0
2017-01-01T05:38:46.392Z,0
2017-01-01T05:39:55.374Z,0
2017-01-01T05:41:04.355Z,0
2017-01-01T05:42:13.358Z,0
2017-01-01T05:43:22.376Z,0
2017-01-01T05:44:31.684Z,0
2017-01-01T05:45:40.935Z,0
2017-01-01T05:46:50.183Z,0
2017-01-01T05:47:59.183Z,0
2017-01-01T05:49:08.263Z,0
2017-01-01T05:50:17.276Z,0
2017-01-01T05:51:26.274Z,0
2017-01-01T05:52:35.266Z,0
2017-01-01T05:53:44.362Z,0
2017-01-01T05:54:53.405Z,0
2017-01-01T05:56:02.445Z,0
2017-01-01T05:57:11.425Z,0
2017-01-01T05:58:20.544Z,0
2017-01-01T05:59:29.718Z,0
2017-01-01T06:00:38.854Z,0
2017-01-01T06:01:47.822Z,0
2017-01-01T06:02:56.886Z,0
2017-01-01T06:04:05.864Z,0
2017-01-01T06:05:14.981Z,0
2017-01-01T06:06:23.988Z,0
2017-01-01T06:07:32.993Z,0
2017-01-01T06:08:42.389Z,0
2017-01-01T06:09:51.519Z,0
2017-01-01T06:11:00.546Z,0
2017-01-01T06:12:09.528Z,0
2017-01-01T06:13:18.520Z,0
2017-01-01T06:14:27.579Z,0
2017-01-01T06:15:36.596Z,0
2017-01-01T06:16:45.794Z,0
2017-01-01T06:17:55.072Z,0
2017-01-01T06:19:04.222Z,0
2017-01-01T06:20:13.205Z,0
2017-01-01T06:21:22.167Z,0
2017-01-01T06:22:31.205Z,0
2017-01-01T06:23:40.189Z,0
2017-01-01T06:24:49.255Z,0
2017-01-01T06:25:58.607Z,0
2017-01-01T06:27:07.601Z,0
2017-01-01T06:28:16.582Z,0
2017-01-01T06:29:25.571Z,0
2017-01-01T06:30:34.555Z,0
2017-01-01T06:31:43.536Z,0
2017-01-01T06:32:52.536Z,0
2017-01-01T06:34:01.565Z,0
2017-01-01T06:35:11.152Z,0
2017-01-01T06:36:20.402Z,0
2017-01-01T06:37:29.445Z,0
2017-01-01T06:38:38.417Z,0
2017-01-01T06:39:47.441Z,0
2017-01-01T06:40:56.431Z,0
2017-01-01T06:42:05.441Z,0
2017-01-01T06:43:14.440Z,0
2017-01-01T06:44:23.746Z,0
2017-01-01T06:45:33.135Z,0
2017-01-01T06:46:42.312Z,0
2017-01-01T06:47:51.297Z,0
2017-01-01T06:49:00.269Z,0
2017-01-01T06:50:09.258Z,0
2017-01-01T06:51:18.277Z,0
2017-01-01T06:52:27.318Z,0
2017-01-01T06:53:36.504Z,0
2017-01-01T06:54:46.250Z,0
2017-01-01T06:55:55.274Z,4
2017-01-01T06:57:04.241Z,4
2017-01-01T06:58:13.246Z,0
2017-01-01T06:59:22.248Z,0
2017-01-01T07:00:31.304Z,4
2017-01-01T07:01:40.317Z,4
2017-01-01T07:02:49.412Z,4
2017-01-01T07:03:58.887Z,4
2017-01-01T07:05:07.896Z,4
2017-01-01T07:06:17.027Z,4
2017-01-01T07:07:26.018Z,4
2017-01-01T07:08:35.010Z,4
2017-01-01T07:09:43.984Z,8
2017-01-01T07:10:52.975Z,8
2017-01-01T07:12:01.953Z,8
2017-01-01T07:13:10.938Z,12
2017-01-01T07:14:19.962Z,8
2017-01-01T07:15:28.945Z,12
2017-01-01T07:16:37.937Z,12
2017-01-01T07:17:47.077Z,12
2017-01-01T07:18:56.570Z,16
2017-01-01T07:20:05.900Z,12
2017-01-01T07:21:14.920Z,16
2017-01-01T07:22:24.239Z,20
2017-01-01T07:23:33.772Z,20
2017-01-01T07:24:43.050Z,24
2017-01-01T07:25:52.196Z,24
2017-01-01T07:27:01.364Z,24
2017-01-01T07:28:10.336Z,24
2017-01-01T07:29:19.477Z,28
2017-01-01T07:30:28.453Z,28
2017-01-01T07:31:37.439Z,28
2017-01-01T07:32:46.436Z,28
2017-01-01T07:33:55.435Z,36
2017-01-01T07:35:04.920Z,36
2017-01-01T07:36:14.039Z,36
2017-01-01T07:37:23.025Z,44
2017-01-01T07:38:32.064Z,44
2017-01-01T07:39:41.065Z,44
2017-01-01T07:40:50.472Z,44
2017-01-01T07:41:59.726Z,48
2017-01-01T07:43:08.980Z,52
2017-01-01T07:44:18.115Z,52
2017-01-01T07:45:27.100Z,52
2017-01-01T07:46:36.228Z,52
2017-01-01T07:47:45.211Z,56
2017-01-01T07:48:54.231Z,56
2017-01-01T07:50:03.216Z,60
2017-01-01T07:51:12.203Z,64
2017-01-01T07:52:21.199Z,64
2017-01-01T07:53:30.189Z,68
2017-01-01T07:54:39.189Z,72
2017-01-01T07:55:48.198Z,72
2017-01-01T07:56:57.251Z,68
2017-01-01T07:58:06.488Z,72
2017-01-01T07:59:15.488Z,80
2017-01-01T08:00:24.487Z,80
2017-01-01T08:01:33.467Z,80
2017-01-01T08:02:42.442Z,80
2017-01-01T08:03:51.445Z,76
2017-01-01T08:05:00.513Z,84
2017-01-01T08:06:09.548Z,80
2017-01-01T08:07:18.789Z,84
2017-01-01T08:08:27.813Z,84
2017-01-01T08:09:36.914Z,84
2017-01-01T08:10:45.904Z,92
2017-01-01T08:11:55.777Z,92
2017-01-01T08:13:04.911Z,96
2017-01-01T08:14:13.948Z,92
2017-01-01T08:15:22.967Z,100
2017-01-01T08:16:32.016Z,100
2017-01-01T08:17:41.448Z,100
2017-01-01T08:18:50.591Z,88
2017-01-01T08:19:59.787Z,96
2017-01-01T08:21:08.977Z,96
2017-01-01T08:22:18.213Z,96
2017-01-01T08:23:28.975Z,116
2017-01-01T08:24:38.497Z,132
2017-01-01T08:25:47.727Z,108
2017-01-01T08:26:56.995Z,96
2017-01-01T08:28:06.191Z,112
2017-01-01T08:29:15.414Z,132
2017-01-01T08:30:24.610Z,132
2017-01-01T08:31:33.760Z,116
2017-01-01T08:32:42.905Z,120
2017-01-01T08:33:52.040Z,128
2017-01-01T08:35:01.033Z,108
2017-01-01T08:36:10.002Z,128
2017-01-01T08:37:19.001Z,148
2017-01-01T08:38:28.012Z,148
2017-01-01T08:39:36.997Z,140
2017-01-01T08:40:45.973Z,140
2017-01-01T08:41:54.977Z,152
2017-01-01T08:43:04.001Z,160
2017-01-01T08:44:13.005Z,156
2017-01-01T08:45:22.003Z,152
2017-01-01T08:46:31.168Z,140
2017-01-01T08:47:40.185Z,152
2017-01-01T08:48:49.410Z,160
2017-01-01T08:49:58.558Z,152
2017-01-01T08:51:07.723Z,124
2017-01-01T08:52:16.928Z,132
2017-01-01T08:53:26.123Z,148
2017-01-01T08:54:35.151Z,156
2017-01-01T08:55:44.337Z,148
2017-01-01T08:56:53.323Z,156
2017-01-01T08:58:02.308Z,168
2017-01-01T08:59:11.288Z,184
2017-01-01T09:00:20.261Z,168
2017-01-01T09:01:29.243Z,176
2017-01-01T09:02:38.297Z,176
2017-01-01T09:03:47.359Z,176
2017-01-01T09:04:56.802Z,192
2017-01-01T09:06:06.152Z,192
2017-01-01T09:07:15.627Z,184
2017-01-01T09:08:25.984Z,176
2017-01-01T09:09:35.672Z,172
2017-01-01T09:10:45.151Z,192
2017-01-01T09:11:54.412Z,216
2017-01-01T09:13:03.885Z,188
2017-01-01T09:14:13.328Z,200
2017-01-01T09:15:22.757Z,180
2017-01-01T09:16:32.041Z,144
2017-01-01T09:17:41.028Z,120
2017-01-01T09:18:50.064Z,108
2017-01-01T09:19:59.042Z,112
2017-01-01T09:21:08.021Z,112
2017-01-01T09:22:17.004Z,112
2017-01-01T09:23:26.040Z,116
2017-01-01T09:24:35.069Z,124
2017-01-01T09:25:44.412Z,136
2017-01-01T09:26:53.420Z,136
2017-01-01T09:28:02.811Z,136
2017-01-01T09:29:11.853Z,136
2017-01-01T09:30:21.030Z,136
2017-01-01T09:31:30.045Z,148
2017-01-01T09:32:39.110Z,160
2017-01-01T09:33:48.498Z,180
2017-01-01T09:34:57.628Z,204
2017-01-01T09:36:06.601Z,232
2017-01-01T09:37:15.600Z,260
2017-01-01T09:38:24.618Z,268
2017-01-01T09:39:33.706Z,284
2017-01-01T09:40:42.745Z,272
2017-01-01T09:41:51.915Z,260
2017-01-01T09:43:00.964Z,252
2017-01-01T09:44:10.895Z,256
2017-01-01T09:45:19.878Z,260
2017-01-01T09:46:28.898Z,244
2017-01-01T09:47:37.935Z,240
2017-01-01T09:48:46.943Z,216
2017-01-01T09:49:55.924Z,220
2017-01-01T09:51:04.912Z,204
2017-01-01T09:52:13.883Z,176
2017-01-01T09:53:22.879Z,176
2017-01-01T09:54:31.927Z,212
2017-01-01T09:55:41.090Z,236
2017-01-01T09:56:50.359Z,248
2017-01-01T09:58:00.047Z,244
2017-01-01T09:59:09.332Z,248
2017-01-01T10:00:18.524Z,264
2017-01-01T10:01:27.509Z,272
2017-01-01T10:02:36.504Z,276
2017-01-01T10:03:45.481Z,280
2017-01-01T10:04:54.458Z,288
2017-01-01T10:06:03.529Z,292
2017-01-01T10:07:12.538Z,276
2017-01-01T10:08:21.857Z,260
2017-01-01T10:09:31.513Z,260
2017-01-01T10:10:41.067Z,268
2017-01-01T10:11:50.352Z,276
2017-01-01T10:12:59.510Z,280
2017-01-01T10:14:08.491Z,296
2017-01-01T10:15:17.490Z,288
2017-01-01T10:16:26.535Z,276
2017-01-01T10:17:35.517Z,260
2017-01-01T10:18:44.512Z,248
2017-01-01T10:19:53.897Z,264
2017-01-01T10:21:02.877Z,272
2017-01-01T10:22:11.879Z,264
2017-01-01T10:23:20.924Z,248
2017-01-01T10:24:29.930Z,244
2017-01-01T10:25:39.481Z,252
2017-01-01T10:26:49.193Z,264
2017-01-01T10:27:59.094Z,252
2017-01-01T10:29:08.760Z,264
2017-01-01T10:30:18.381Z,276
2017-01-01T10:31:27.373Z,272
2017-01-01T10:32:36.712Z,260
2017-01-01T10:33:46.656Z,260
2017-01-01T10:34:55.797Z,252
2017-01-01T10:36:04.798Z,248
2017-01-01T10:37:13.782Z,252
2017-01-01T10:38:22.761Z,248
2017-01-01T10:39:31.767Z,232
2017-01-01T10:40:40.758Z,240
2017-01-01T10:41:49.756Z,260
2017-01-01T10:42:58.778Z,260
2017-01-01T10:44:08.026Z,260
2017-01-01T10:45:17.052Z,248
2017-01-01T10:46:26.326Z,248
2017-01-01T10:47:36.046Z,252
2017-01-01T10:48:45.258Z,240
2017-01-01T10:49:54.521Z,236
2017-01-01T10:51:03.724Z,240
2017-01-01T10:52:12.875Z,248
2017-01-01T10:53:21.884Z,240
2017-01-01T10:54:30.873Z,232
2017-01-01T10:55:39.851Z,228
2017-01-01T10:56:48.836Z,236
2017-01-01T10:57:57.816Z,244
2017-01-01T10:59:07.228Z,252
2017-01-01T11:00:16.368Z,268
2017-01-01T11:01:25.375Z,272
2017-01-01T11:02:34.424Z,268
2017-01-01T11:03:43.444Z,256
2017-01-01T11:04:52.528Z,264
2017-01-01T11:06:01.668Z,264
2017-01-01T11:07:10.648Z,272
2017-01-01T11:08:19.709Z,260
2017-01-01T11:09:28.726Z,264
2017-01-01T11:10:37.786Z,268
2017-01-01T11:11:46.840Z,268
2017-01-01T11:12:56.170Z,256
2017-01-01T11:14:05.518Z,280
2017-01-01T11:15:16.621Z,276
2017-01-01T11:16:25.786Z,276
2017-01-01T11:17:34.920Z,276
2017-01-01T11:18:43.957Z,288
2017-01-01T11:19:52.996Z,272
2017-01-01T11:21:01.980Z,260
2017-01-01T11:22:10.943Z,248
2017-01-01T11:23:19.930Z,244
2017-01-01T11:24:28.927Z,272
2017-01-01T11:25:37.904Z,264
2017-01-01T11:26:47.061Z,268
2017-01-01T11:27:56.288Z,276
2017-01-01T11:29:05.466Z,288
2017-01-01T11:30:14.493Z,288
2017-01-01T11:31:23.843Z,280
2017-01-01T11:32:32.950Z,292
2017-01-01T11:33:41.930Z,300
2017-01-01T11:34:50.920Z,296
2017-01-01T11:35:59.908Z,300
2017-01-01T11:37:08.895Z,300
2017-01-01T11:38:17.882Z,272
2017-01-01T11:39:26.856Z,276
2017-01-01T11:40:35.849Z,236
2017-01-01T11:41:44.866Z,264
2017-01-01T11:42:53.889Z,260
2017-01-01T11:44:02.991Z,260
2017-01-01T11:45:12.420Z,272
2017-01-01T11:46:21.807Z,272
2017-01-01T11:47:30.957Z,268
2017-01-01T11:48:39.938Z,272
2017-01-01T11:49:48.915Z,244
2017-01-01T11:50:57.897Z,228
2017-01-01T11:52:06.871Z,220
2017-01-01T11:53:15.899Z,208
2017-01-01T11:54:25.070Z,176
2017-01-01T11:55:34.170Z,160
2017-01-01T11:56:43.183Z,160
2017-01-01T11:57:52.544Z,160
2017-01-01T11:59:01.736Z,164
2017-01-01T12:00:11.599Z,172
2017-01-01T12:01:20.612Z,188
2017-01-01T12:02:31.191Z,192
2017-01-01T12:03:41.352Z,188
2017-01-01T12:04:50.594Z,196
2017-01-01T12:05:59.719Z,208
2017-01-01T12:07:08.697Z,208
2017-01-01T12:08:17.681Z,128
2017-01-01T12:09:26.951Z,200
2017-01-01T12:10:36.781Z,176
2017-01-01T12:11:46.179Z,152
2017-01-01T12:12:55.903Z,140
2017-01-01T12:14:05.031Z,128
2017-01-01T12:15:14.201Z,120
2017-01-01T12:16:23.488Z,112
2017-01-01T12:17:33.313Z,112
2017-01-01T12:18:42.348Z,112
2017-01-01T12:19:51.350Z,112
2017-01-01T12:21:00.401Z,108
2017-01-01T12:22:09.867Z,104
2017-01-01T12:23:18.845Z,100
2017-01-01T12:24:27.837Z,100
2017-01-01T12:25:37.030Z,100
2017-01-01T12:26:46.076Z,100
2017-01-01T12:27:55.148Z,112
2017-01-01T12:29:04.295Z,120
2017-01-01T12:30:13.754Z,120
2017-01-01T12:31:25.352Z,124
2017-01-01T12:32:34.853Z,124
2017-01-01T12:33:43.892Z,124
2017-01-01T12:34:53.400Z,120
2017-01-01T12:36:02.407Z,120
2017-01-01T12:37:11.583Z,124
2017-01-01T12:38:20.727Z,124
2017-01-01T12:39:29.778Z,112
2017-01-01T12:40:38.801Z,104
2017-01-01T12:41:47.812Z,108
2017-01-01T12:42:56.800Z,104
2017-01-01T12:44:05.798Z,108
2017-01-01T12:45:14.792Z,112
2017-01-01T12:46:23.840Z,116
2017-01-01T12:47:32.859Z,124
2017-01-01T12:48:42.175Z,132
2017-01-01T12:49:51.177Z,136
2017-01-01T12:51:00.380Z,144
2017-01-01T12:52:09.405Z,136
2017-01-01T12:53:18.583Z,124
2017-01-01T12:54:27.755Z,120
2017-01-01T12:55:37.150Z,112
2017-01-01T12:56:46.220Z,104
2017-01-01T12:57:55.745Z,100
2017-01-01T12:59:05.149Z,92
2017-01-01T13:00:14.360Z,88
2017-01-01T13:01:23.586Z,88
2017-01-01T13:02:32.765Z,92
2017-01-01T13:03:41.757Z,88
2017-01-01T13:04:50.810Z,80
2017-01-01T13:05:59.795Z,76
2017-01-01T13:07:08.895Z,68
2017-01-01T13:08:17.876Z,64
2017-01-01T13:09:27.655Z,64
2017-01-01T13:10:38.471Z,64
2017-01-01T13:11:47.951Z,64
2017-01-01T13:12:57.129Z,60
2017-01-01T13:14:06.354Z,60
2017-01-01T13:15:15.338Z,60
2017-01-01T13:16:24.327Z,64
2017-01-01T13:17:33.318Z,56
2017-01-01T13:18:42.362Z,56
2017-01-01T13:19:51.922Z,56
2017-01-01T13:21:01.078Z,56
2017-01-01T13:22:10.859Z,52
2017-01-01T13:23:19.889Z,52
2017-01-01T13:24:29.026Z,52
2017-01-01T13:25:38.009Z,52
2017-01-01T13:26:47.247Z,48
2017-01-01T13:27:56.542Z,52
2017-01-01T13:29:05.880Z,48
2017-01-01T13:30:15.051Z,48
2017-01-01T13:31:26.839Z,48
2017-01-01T13:32:35.847Z,44
2017-01-01T13:33:45.837Z,44
2017-01-01T13:34:55.969Z,44
2017-01-01T13:36:04.981Z,44
2017-01-01T13:37:13.980Z,44
2017-01-01T13:38:23.012Z,44
2017-01-01T13:39:32.211Z,40
2017-01-01T13:40:43.626Z,44
2017-01-01T13:41:53.087Z,40
2017-01-01T13:43:03.405Z,36
2017-01-01T13:44:12.475Z,36
2017-01-01T13:45:21.728Z,36
2017-01-01T13:46:30.765Z,36
2017-01-01T13:47:40.296Z,36
2017-01-01T13:48:49.668Z,36
2017-01-01T13:49:58.725Z,36
2017-01-01T13:51:07.732Z,36
2017-01-01T13:52:16.748Z,36
2017-01-01T13:53:25.771Z,40
2017-01-01T13:54:34.766Z,40
2017-01-01T13:55:43.789Z,36
2017-01-01T13:56:52.811Z,36
2017-01-01T13:58:01.824Z,36
2017-01-01T13:59:10.821Z,32
2017-01-01T14:00:20.374Z,32
2017-01-01T14:01:30.305Z,32
2017-01-01T14:02:39.681Z,32
2017-01-01T14:03:48.891Z,28
2017-01-01T14:04:57.998Z,28
2017-01-01T14:06:07.264Z,28
2017-01-01T14:07:16.294Z,24
2017-01-01T14:08:25.302Z,24
2017-01-01T14:09:34.322Z,24
2017-01-01T14:10:43.514Z,28
2017-01-01T14:11:52.630Z,24
2017-01-01T14:13:03.154Z,20
2017-01-01T14:14:12.323Z,20
2017-01-01T14:15:21.356Z,24
2017-01-01T14:16:30.513Z,20
2017-01-01T14:17:39.512Z,20
2017-01-01T14:18:48.496Z,24
2017-01-01T14:19:57.498Z,20
2017-01-01T14:21:06.698Z,20
2017-01-01T14:22:17.067Z,24
2017-01-01T14:23:26.114Z,24
2017-01-01T14:24:35.116Z,20
2017-01-01T14:25:44.131Z,20
2017-01-01T14:26:53.196Z,16
2017-01-01T14:28:02.567Z,20
2017-01-01T14:29:12.349Z,20
2017-01-01T14:30:21.615Z,20
2017-01-01T14:31:30.674Z,16
2017-01-01T14:32:39.689Z,16
2017-01-01T14:33:48.723Z,20
2017-01-01T14:34:58.076Z,20
2017-01-01T14:36:07.106Z,16
2017-01-01T14:37:16.096Z,16
2017-01-01T14:38:25.132Z,16
2017-01-01T14:39:34.126Z,12
2017-01-01T14:40:43.127Z,16
2017-01-01T14:41:52.225Z,16
2017-01-01T14:43:02.272Z,16
2017-01-01T14:44:11.454Z,12
2017-01-01T14:45:20.472Z,12
2017-01-01T14:46:29.736Z,12
2017-01-01T14:47:39.061Z,8
2017-01-01T14:48:48.083Z,12
2017-01-01T14:49:57.812Z,12
2017-01-01T14:51:08.012Z,8
2017-01-01T14:52:17.537Z,8
2017-01-01T14:53:27.166Z,8
2017-01-01T14:54:36.925Z,8
2017-01-01T14:55:46.143Z,12
2017-01-01T14:56:55.376Z,8
2017-01-01T14:58:04.908Z,8
2017-01-01T14:59:14.143Z,12
2017-01-01T15:00:23.510Z,8
2017-01-01T15:01:32.678Z,4
2017-01-01T15:02:41.718Z,8
2017-01-01T15:03:50.872Z,8
2017-01-01T15:05:00.040Z,4
2017-01-01T15:06:09.123Z,4
2017-01-01T15:07:18.690Z,4
2017-01-01T15:08:27.699Z,8
2017-01-01T15:09:36.712Z,4
2017-01-01T15:10:45.722Z,4
2017-01-01T15:11:54.766Z,4
2017-01-01T15:13:03.828Z,4
2017-01-01T15:14:12.999Z,4
2017-01-01T15:15:21.997Z,4
2017-01-01T15:16:31.047Z,4
2017-01-01T15:17:40.080Z,0
2017-01-01T15:18:49.497Z,0
2017-01-01T15:19:58.804Z,0
2017-01-01T15:21:07.822Z,0
2017-01-01T15:22:17.282Z,0
2017-01-01T15:23:26.420Z,4
2017-01-01T15:24:35.413Z,4
2017-01-01T15:25:44.385Z,4
2017-01-01T15:26:53.381Z,4
2017-01-01T15:28:02.415Z,4
2017-01-01T15:29:11.398Z,4
2017-01-01T15:30:20.436Z,4
2017-01-01T15:31:29.460Z,4
2017-01-01T15:32:38.462Z,4
2017-01-01T15:33:48.020Z,4
2017-01-01T15:34:57.533Z,0
2017-01-01T15:36:06.577Z,0
2017-01-01T15:37:15.635Z,0
2017-01-01T15:38:24.634Z,0
2017-01-01T15:39:33.607Z,0
2017-01-01T15:40:42.604Z,0
2017-01-01T15:41:51.597Z,0
2017-01-01T15:43:00.617Z,0
2017-01-01T15:44:09.642Z,0
2017-01-01T15:45:18.665Z,0
2017-01-01T15:46:27.689Z,0
2017-01-01T15:47:36.857Z,0
2017-01-01T15:48:50.419Z,0
2017-01-01T15:49:59.686Z,0
2017-01-01T15:51:09.918Z,0
2017-01-01T15:52:19.303Z,0
2017-01-01T15:53:28.743Z,0
2017-01-01T15:54:37.938Z,0
2017-01-01T15:55:46.933Z,4
2017-01-01T15:56:55.960Z,4
2017-01-01T15:58:04.956Z,4
2017-01-01T15:59:15.994Z,4
2017-01-01T16:00:25.004Z,4
2017-01-01T16:01:34.014Z,4
2017-01-01T16:02:42.997Z,4
2017-01-01T16:03:51.995Z,4
2017-01-01T16:05:00.975Z,4
2017-01-01T16:06:09.987Z,4
2017-01-01T16:07:18.975Z,4
2017-01-01T16:08:28.023Z,4
2017-01-01T16:09:37.167Z,4
2017-01-01T16:10:46.613Z,4
2017-01-01T16:11:55.591Z,4
2017-01-01T16:13:04.577Z,4
2017-01-01T16:14:13.561Z,4
2017-01-01T16:15:22.557Z,4
2017-01-01T16:16:32.044Z,4
2017-01-01T16:17:41.026Z,4
2017-01-01T16:18:50.004Z,4
2017-01-01T16:19:59.008Z,4
2017-01-01T16:21:07.994Z,4
2017-01-01T16:22:16.988Z,4
2017-01-01T16:23:26.035Z,4
2017-01-01T16:24:35.027Z,4
2017-01-01T16:25:44.024Z,4
2017-01-01T16:26:53.397Z,4
2017-01-01T16:28:02.384Z,4
2017-01-01T16:29:11.365Z,4
2017-01-01T16:30:20.349Z,0
2017-01-01T16:31:29.338Z,0
2017-01-01T16:32:38.332Z,0
2017-01-01T16:33:47.322Z,0
2017-01-01T16:34:56.313Z,0